createdAt,value
2023-01-19T00:01:35.655Z,2.28
2023-01-19T00:03:39.491Z,2.28
2023-01-19T00:05:43.142Z,2.27
2023-01-19T00:07:45.993Z,2.30
2023-01-19T00:09:48.873Z,2.24
2023-01-19T00:11:51.758Z,2.33
2023-01-19T00:13:54.676Z,2.33
2023-01-19T00:15:59.156Z,2.31
2023-01-19T00:18:02.032Z,2.38
2023-01-19T00:20:05.632Z,2.41
2023-01-19T00:22:08.468Z,2.36
2023-01-19T00:24:13.831Z,2.27
2023-01-19T00:26:17.345Z,2.33
2023-01-19T00:28:20.320Z,2.33
2023-01-19T00:30:23.182Z,2.36
2023-01-19T00:32:27.915Z,2.40
2023-01-19T00:34:37.032Z,2.41
2023-01-19T00:36:40.098Z,2.44
2023-01-19T00:38:43.400Z,2.36
2023-01-19T00:40:47.222Z,2.31
2023-01-19T00:42:49.088Z,2.44
2023-01-19T00:44:51.912Z,2.32
2023-01-19T00:46:54.971Z,2.41
2023-01-19T00:49:00.187Z,2.38
2023-01-19T00:51:03.455Z,2.42
2023-01-19T00:53:06.535Z,2.50
2023-01-19T00:55:11.904Z,2.45
2023-01-19T00:57:16.222Z,2.53
2023-01-19T00:59:19.152Z,2.49
2023-01-19T01:01:22.124Z,2.43
2023-01-19T01:03:44.909Z,2.40
2023-01-19T01:05:50.531Z,2.32
2023-01-19T01:07:53.341Z,2.45
2023-01-19T01:09:56.674Z,2.36
2023-01-19T01:12:02.073Z,2.40
2023-01-19T01:14:04.950Z,2.32
2023-01-19T01:16:12.270Z,2.36
2023-01-19T01:18:15.164Z,2.30
2023-01-19T01:20:20.106Z,2.41
2023-01-19T01:22:27.060Z,2.48
2023-01-19T01:24:30.113Z,2.50
2023-01-19T01:26:32.881Z,2.46
2023-01-19T01:28:35.734Z,2.48
2023-01-19T01:30:41.047Z,2.51
2023-01-19T01:32:43.959Z,2.45
2023-01-19T01:34:48.024Z,2.46
2023-01-19T01:36:51.376Z,2.46
2023-01-19T01:38:56.455Z,2.35
2023-01-19T01:40:59.599Z,2.47
2023-01-19T01:43:03.106Z,2.57
2023-01-19T01:45:14.124Z,2.51
2023-01-19T01:47:19.686Z,2.55
2023-01-19T01:49:24.905Z,2.52
2023-01-19T01:51:31.311Z,2.58
2023-01-19T01:53:35.545Z,2.60
2023-01-19T01:55:43.293Z,2.60
2023-01-19T01:57:49.257Z,2.68
2023-01-19T01:59:52.492Z,2.65
2023-01-19T02:02:15.548Z,2.65
2023-01-19T02:04:19.103Z,2.73
2023-01-19T02:06:22.330Z,2.66
2023-01-19T02:08:47.229Z,2.73
2023-01-19T02:11:09.590Z,2.81
2023-01-19T02:13:18.950Z,2.84
2023-01-19T02:15:22.222Z,2.86
2023-01-19T02:17:25.348Z,2.78
2023-01-19T02:19:32.919Z,2.84
2023-01-19T02:21:39.957Z,2.75
2023-01-19T02:23:46.682Z,2.90
2023-01-19T02:25:50.474Z,2.81
2023-01-19T02:27:53.679Z,2.93
2023-01-19T02:29:56.961Z,2.93
2023-01-19T02:32:02.371Z,2.94
2023-01-19T02:34:07.921Z,2.93
2023-01-19T02:36:12.236Z,2.94
2023-01-19T02:38:16.571Z,2.86
2023-01-19T02:40:22.055Z,2.87
2023-01-19T02:42:29.010Z,2.91
2023-01-19T02:44:34.449Z,2.84
2023-01-19T02:46:41.091Z,2.81
2023-01-19T02:48:43.959Z,2.82
2023-01-19T02:50:49.865Z,2.81
2023-01-19T02:52:53.885Z,2.88
2023-01-19T02:55:03.893Z,2.94
2023-01-19T02:57:34.168Z,3.03
2023-01-19T02:59:47.963Z,2.90
2023-01-19T03:02:08.903Z,2.95
2023-01-19T03:04:16.928Z,2.87
2023-01-19T03:06:28.001Z,2.78
2023-01-19T03:08:43.772Z,2.96
2023-01-19T03:10:52.579Z,3.02
2023-01-19T03:13:03.788Z,3.00
2023-01-19T03:15:15.520Z,2.93
2023-01-19T03:17:19.883Z,2.89
2023-01-19T03:19:27.479Z,2.84
2023-01-19T03:21:32.011Z,2.92
2023-01-19T03:23:42.914Z,2.75
2023-01-19T03:25:46.919Z,2.85
2023-01-19T03:27:52.989Z,2.79
2023-01-19T03:30:01.847Z,2.73
2023-01-19T03:32:09.744Z,2.76
2023-01-19T03:34:20.141Z,2.70
2023-01-19T03:36:29.235Z,2.67
2023-01-19T03:38:40.509Z,2.70
2023-01-19T03:40:44.172Z,2.69
2023-01-19T03:42:47.584Z,2.65
2023-01-19T03:44:52.599Z,2.72
2023-01-19T03:46:58.735Z,2.65
2023-01-19T03:49:02.884Z,2.69
2023-01-19T03:51:09.779Z,2.66
2023-01-19T03:53:15.669Z,2.67
2023-01-19T03:55:21.869Z,2.61
2023-01-19T03:57:26.423Z,2.81
2023-01-19T03:59:31.693Z,2.69
2023-01-19T04:01:39.143Z,2.71
2023-01-19T04:03:44.511Z,2.75
2023-01-19T04:05:47.821Z,2.65
2023-01-19T04:07:54.036Z,2.78
2023-01-19T04:10:05.396Z,2.81
2023-01-19T04:12:08.935Z,2.84
2023-01-19T04:14:12.158Z,2.84
2023-01-19T04:16:20.519Z,2.89
2023-01-19T04:18:24.296Z,2.89
2023-01-19T04:20:29.409Z,2.85
2023-01-19T04:22:39.136Z,2.82
2023-01-19T04:24:44.663Z,2.84
2023-01-19T04:26:48.088Z,2.91
2023-01-19T04:28:54.005Z,2.88
2023-01-19T04:30:59.117Z,2.94
2023-01-19T04:33:02.645Z,2.99
2023-01-19T04:35:07.276Z,3.02
2023-01-19T04:37:16.617Z,2.90
2023-01-19T04:39:20.594Z,2.71
2023-01-19T04:41:23.618Z,2.71
2023-01-19T04:43:28.402Z,2.78
2023-01-19T04:45:31.630Z,2.75
2023-01-19T04:47:35.793Z,2.74
2023-01-19T04:49:41.107Z,2.68
2023-01-19T04:51:45.103Z,2.75
2023-01-19T04:53:51.862Z,2.86
2023-01-19T04:55:55.906Z,2.81
2023-01-19T04:58:00.209Z,2.68
2023-01-19T05:00:04.157Z,2.69
2023-01-19T05:02:08.096Z,2.83
2023-01-19T05:04:14.445Z,2.68
2023-01-19T05:06:20.168Z,2.58
2023-01-19T05:08:23.079Z,2.61
2023-01-19T05:10:29.147Z,2.53
2023-01-19T05:12:33.352Z,2.27
2023-01-19T05:14:40.060Z,2.34
2023-01-19T05:16:47.108Z,2.31
2023-01-19T05:18:56.126Z,2.24
2023-01-19T05:21:02.185Z,2.08
2023-01-19T05:23:07.620Z,1.97
2023-01-19T05:25:11.947Z,1.90
2023-01-19T05:27:18.195Z,1.99
2023-01-19T05:29:22.298Z,1.85
2023-01-19T05:31:26.509Z,1.85
2023-01-19T05:33:36.732Z,1.74
2023-01-19T05:35:40.253Z,1.77
2023-01-19T05:37:45.736Z,1.75
2023-01-19T05:39:50.865Z,1.82
2023-01-19T05:41:53.976Z,1.80
2023-01-19T05:43:58.748Z,1.85
2023-01-19T05:46:04.605Z,1.92
2023-01-19T05:48:10.469Z,1.84
2023-01-19T05:50:13.774Z,1.82
2023-01-19T05:52:17.126Z,1.82
2023-01-19T05:54:21.369Z,1.87
2023-01-19T05:56:26.211Z,1.82
2023-01-19T05:58:34.821Z,1.77
2023-01-19T06:00:40.470Z,1.74
2023-01-19T06:02:43.600Z,1.76
2023-01-19T06:04:48.144Z,1.77
2023-01-19T06:06:53.515Z,1.80
2023-01-19T06:08:58.567Z,1.82
2023-01-19T06:11:04.191Z,1.85
2023-01-19T06:13:11.622Z,1.81
2023-01-19T06:15:17.155Z,1.85
2023-01-19T06:17:22.214Z,1.80
2023-01-19T06:19:25.509Z,1.77
2023-01-19T06:21:29.833Z,1.68
2023-01-19T06:23:35.909Z,1.75
2023-01-19T06:25:47.538Z,1.80
2023-01-19T06:27:51.870Z,1.74
2023-01-19T06:29:57.228Z,1.74
2023-01-19T06:32:07.848Z,1.68
2023-01-19T06:34:18.003Z,1.74
2023-01-19T06:36:22.382Z,1.81
2023-01-19T06:38:26.921Z,1.85
2023-01-19T06:40:31.678Z,1.73
2023-01-19T06:42:35.438Z,1.77
2023-01-19T06:44:38.905Z,1.71
2023-01-19T06:46:42.174Z,1.83
2023-01-19T06:48:53.589Z,1.81
2023-01-19T06:50:59.952Z,1.82
2023-01-19T06:53:05.884Z,1.84
2023-01-19T06:55:11.761Z,1.82
2023-01-19T06:57:19.027Z,1.70
2023-01-19T06:59:22.869Z,1.78
2023-01-19T07:01:29.265Z,1.82
2023-01-19T07:03:37.521Z,1.86
2023-01-19T07:05:44.188Z,1.86
2023-01-19T07:07:52.886Z,1.93
2023-01-19T07:09:55.911Z,1.87
2023-01-19T07:12:02.338Z,1.83
2023-01-19T07:14:09.295Z,1.77
2023-01-19T07:16:14.701Z,1.85
2023-01-19T07:18:19.736Z,1.90
2023-01-19T07:20:24.014Z,1.90
2023-01-19T07:22:27.188Z,2.00
2023-01-19T07:24:33.573Z,1.86
2023-01-19T07:26:39.532Z,1.84
2023-01-19T07:28:47.360Z,1.83
2023-01-19T07:30:55.689Z,1.88
2023-01-19T07:33:00.887Z,1.86
2023-01-19T07:35:06.451Z,1.87
2023-01-19T07:37:10.803Z,1.82
2023-01-19T07:39:18.188Z,1.99
2023-01-19T07:41:27.825Z,1.93
2023-01-19T07:43:32.635Z,1.81
2023-01-19T07:45:45.176Z,1.97
2023-01-19T07:47:52.364Z,1.92
2023-01-19T07:49:57.660Z,1.88
2023-01-19T07:52:02.896Z,1.93
2023-01-19T07:54:08.686Z,2.04
2023-01-19T07:56:12.628Z,2.13
2023-01-19T07:58:17.256Z,1.99
2023-01-19T08:00:25.881Z,1.96
2023-01-19T08:02:30.587Z,2.03
2023-01-19T08:04:38.052Z,2.09
2023-01-19T08:06:47.770Z,2.05
2023-01-19T08:08:58.823Z,1.98
2023-01-19T08:11:06.627Z,2.00
2023-01-19T08:13:09.964Z,2.05
2023-01-19T08:15:15.971Z,2.06
2023-01-19T08:17:19.494Z,2.01
2023-01-19T08:19:29.105Z,2.03
2023-01-19T08:21:35.668Z,2.00
2023-01-19T08:23:39.219Z,2.14
2023-01-19T08:25:44.678Z,2.10
2023-01-19T08:27:50.056Z,2.06
2023-01-19T08:29:58.891Z,2.13
2023-01-19T08:32:04.052Z,2.12
2023-01-19T08:34:09.980Z,1.99
2023-01-19T08:36:13.364Z,2.02
2023-01-19T08:38:18.912Z,1.96
2023-01-19T08:40:21.833Z,2.02
2023-01-19T08:42:24.979Z,2.08
2023-01-19T08:44:28.287Z,2.15
2023-01-19T08:46:31.704Z,2.15
2023-01-19T08:48:35.961Z,2.16
2023-01-19T08:50:38.880Z,2.14
2023-01-19T08:52:41.732Z,2.20
2023-01-19T08:54:44.606Z,2.17
2023-01-19T08:56:47.516Z,2.25
2023-01-19T08:59:07.644Z,2.34
2023-01-19T09:01:14.082Z,2.29
2023-01-19T09:03:17.120Z,2.22
2023-01-19T09:05:21.512Z,2.20
2023-01-19T09:07:24.354Z,2.24
2023-01-19T09:09:27.260Z,2.24
2023-01-19T09:11:30.800Z,2.28
2023-01-19T09:13:34.498Z,2.40
2023-01-19T09:15:37.844Z,2.31
2023-01-19T09:17:41.882Z,2.26
2023-01-19T09:19:44.930Z,2.35
2023-01-19T09:21:49.293Z,2.23
2023-01-19T09:23:52.403Z,2.41
2023-01-19T09:25:58.743Z,2.50
2023-01-19T09:28:04.601Z,2.46
2023-01-19T09:30:11.406Z,2.49
2023-01-19T09:32:14.261Z,2.60
2023-01-19T09:34:17.154Z,2.60
2023-01-19T09:36:20.015Z,2.61
2023-01-19T09:38:25.855Z,2.51
2023-01-19T09:40:29.318Z,2.54
2023-01-19T09:42:34.825Z,2.48
2023-01-19T09:44:37.925Z,2.62
2023-01-19T09:46:42.308Z,2.65
2023-01-19T09:48:47.899Z,2.72
2023-01-19T09:50:50.960Z,2.78
2023-01-19T09:53:01.551Z,2.77
2023-01-19T09:55:21.951Z,2.75
2023-01-19T09:57:27.168Z,2.72
2023-01-19T09:59:31.392Z,2.63
2023-01-19T10:01:39.257Z,2.72
2023-01-19T10:03:42.564Z,2.84
2023-01-19T10:05:48.425Z,2.74
2023-01-19T10:08:05.627Z,2.79
2023-01-19T10:10:19.518Z,2.68
2023-01-19T10:12:32.009Z,2.64
2023-01-19T10:14:38.133Z,2.83
2023-01-19T10:16:47.529Z,2.83
2023-01-19T10:18:52.492Z,2.77
2023-01-19T10:21:01.192Z,2.83
2023-01-19T10:23:07.120Z,2.80
2023-01-19T10:25:17.359Z,2.74
2023-01-19T10:27:22.421Z,2.90
2023-01-19T10:29:29.223Z,3.00
2023-01-19T10:31:34.294Z,2.79
2023-01-19T10:33:37.978Z,2.83
2023-01-19T10:35:40.971Z,2.93
2023-01-19T10:37:44.798Z,2.83
2023-01-19T10:39:48.865Z,2.83
2023-01-19T10:41:54.648Z,2.82
2023-01-19T10:44:02.588Z,2.88
2023-01-19T10:46:09.036Z,2.86
2023-01-19T10:48:13.546Z,2.88
2023-01-19T10:50:34.582Z,3.00
2023-01-19T10:52:39.744Z,2.94
2023-01-19T10:54:44.753Z,3.00
2023-01-19T10:56:54.103Z,2.88
2023-01-19T10:58:57.407Z,2.89
2023-01-19T11:01:14.169Z,2.84
2023-01-19T11:03:24.584Z,3.01
2023-01-19T11:05:29.603Z,2.87
2023-01-19T11:07:34.092Z,2.87
2023-01-19T11:09:37.348Z,2.97
2023-01-19T11:11:44.831Z,2.96
2023-01-19T11:14:04.876Z,3.07
2023-01-19T11:16:11.609Z,2.92
2023-01-19T11:18:24.612Z,2.88
2023-01-19T11:20:30.478Z,2.88
2023-01-19T11:22:34.419Z,2.98
2023-01-19T11:24:39.006Z,2.86
2023-01-19T11:26:43.799Z,2.97
2023-01-19T11:28:53.195Z,3.07
2023-01-19T11:30:58.587Z,3.12
2023-01-19T11:33:01.803Z,3.17
2023-01-19T11:35:36.168Z,3.03
2023-01-19T11:37:42.107Z,3.08
2023-01-19T11:39:49.949Z,3.09
2023-01-19T11:41:56.334Z,3.03
2023-01-19T11:44:04.257Z,3.18
2023-01-19T11:46:07.281Z,3.09
2023-01-19T11:48:18.519Z,3.09
2023-01-19T11:50:24.524Z,3.22
2023-01-19T11:52:29.665Z,3.04
2023-01-19T11:54:37.167Z,3.09
2023-01-19T11:56:40.235Z,3.00
2023-01-19T11:58:46.877Z,2.83
2023-01-19T12:00:53.517Z,3.04
2023-01-19T12:03:00.959Z,3.03
2023-01-19T12:05:08.424Z,3.12
2023-01-19T12:07:13.263Z,3.30
2023-01-19T12:09:20.193Z,3.14
2023-01-19T12:11:27.759Z,3.39
2023-01-19T12:13:31.804Z,3.25
2023-01-19T12:15:37.951Z,3.17
2023-01-19T12:17:46.943Z,3.39
2023-01-19T12:19:55.146Z,3.40
2023-01-19T12:22:05.591Z,3.26
2023-01-19T12:24:19.799Z,3.22
2023-01-19T12:26:43.909Z,3.43
2023-01-19T12:28:52.156Z,3.40
2023-01-19T12:30:56.463Z,3.27
2023-01-19T12:33:23.036Z,3.15
2023-01-19T12:35:59.743Z,3.11
2023-01-19T12:38:05.053Z,3.17
2023-01-19T12:40:24.962Z,3.12
2023-01-19T12:42:30.733Z,3.06
2023-01-19T12:44:37.488Z,3.26
2023-01-19T12:46:43.742Z,3.37
2023-01-19T12:48:51.779Z,3.27
2023-01-19T12:51:02.553Z,3.39
2023-01-19T12:53:08.623Z,3.40
2023-01-19T12:55:26.982Z,3.37
2023-01-19T12:57:35.452Z,3.44
2023-01-19T12:59:39.101Z,3.48
2023-01-19T13:01:42.267Z,3.54
2023-01-19T13:03:59.320Z,3.36
2023-01-19T13:06:02.317Z,3.43
2023-01-19T13:08:19.811Z,3.31
2023-01-19T13:10:54.822Z,3.33
2023-01-19T13:13:18.867Z,3.24
2023-01-19T13:15:30.639Z,3.12
2023-01-19T13:17:37.664Z,3.17
2023-01-19T13:19:50.605Z,3.16
2023-01-19T13:21:54.965Z,3.31
2023-01-19T13:24:01.633Z,3.30
2023-01-19T13:26:07.177Z,3.27
2023-01-19T13:28:12.535Z,3.29
2023-01-19T13:30:19.428Z,3.34
2023-01-19T13:32:25.637Z,3.37
2023-01-19T13:34:30.661Z,3.40
2023-01-19T13:36:38.052Z,3.51
2023-01-19T13:38:43.219Z,3.49
2023-01-19T13:40:47.244Z,3.33
2023-01-19T13:42:56.399Z,3.44
2023-01-19T13:45:03.120Z,3.33
2023-01-19T13:47:09.813Z,3.25
2023-01-19T13:49:19.313Z,3.44
2023-01-19T13:51:23.789Z,3.34
2023-01-19T13:53:31.379Z,3.62
2023-01-19T13:55:35.586Z,3.72
2023-01-19T13:57:42.038Z,3.61
2023-01-19T13:59:45.212Z,3.54
2023-01-19T14:01:51.241Z,3.50
2023-01-19T14:03:59.356Z,3.51
2023-01-19T14:06:03.499Z,3.57
2023-01-19T14:08:15.288Z,3.64
2023-01-19T14:10:20.903Z,3.41
2023-01-19T14:12:25.741Z,3.57
2023-01-19T14:14:34.625Z,3.53
2023-01-19T14:16:40.141Z,3.50
2023-01-19T14:18:43.523Z,3.47
2023-01-19T14:20:57.352Z,3.34
2023-01-19T14:23:00.847Z,3.36
2023-01-19T14:25:38.994Z,3.49
2023-01-19T14:27:44.922Z,3.46
2023-01-19T14:29:50.717Z,3.29
2023-01-19T14:32:08.926Z,3.43
2023-01-19T14:34:34.452Z,3.46
2023-01-19T14:36:42.191Z,3.42
2023-01-19T14:38:45.706Z,3.45
2023-01-19T14:40:49.075Z,3.51
2023-01-19T14:42:57.393Z,3.46
2023-01-19T14:45:02.989Z,3.48
2023-01-19T14:47:14.034Z,3.38
2023-01-19T14:49:21.882Z,3.48
2023-01-19T14:51:27.975Z,3.39
2023-01-19T14:53:38.701Z,3.36
2023-01-19T14:55:47.603Z,3.45
2023-01-19T14:57:50.669Z,3.50
2023-01-19T14:59:56.035Z,3.61
2023-01-19T15:02:00.995Z,3.52
2023-01-19T15:04:05.584Z,3.33
2023-01-19T15:06:12.806Z,3.51
2023-01-19T15:08:18.100Z,3.34
2023-01-19T15:10:25.628Z,3.55
2023-01-19T15:12:32.786Z,3.48
2023-01-19T15:14:36.570Z,3.53
2023-01-19T15:16:45.625Z,3.58
2023-01-19T15:18:50.877Z,3.31
2023-01-19T15:20:55.649Z,3.32
2023-01-19T15:23:04.040Z,3.35
2023-01-19T15:25:08.501Z,3.31
2023-01-19T15:27:14.480Z,3.31
2023-01-19T15:29:22.738Z,3.32
2023-01-19T15:31:27.876Z,3.39
2023-01-19T15:33:33.141Z,3.38
2023-01-19T15:35:37.089Z,3.36
2023-01-19T15:37:41.083Z,3.38
2023-01-19T15:39:43.957Z,3.43
2023-01-19T15:41:48.883Z,3.45
2023-01-19T15:43:54.527Z,3.45
2023-01-19T15:46:03.117Z,3.39
2023-01-19T15:48:13.409Z,3.43
2023-01-19T15:50:20.052Z,3.43
2023-01-19T15:52:25.596Z,3.37
2023-01-19T15:54:32.808Z,3.32
2023-01-19T15:56:37.415Z,3.33
2023-01-19T15:58:50.311Z,3.33
2023-01-19T16:01:02.879Z,3.20
2023-01-19T16:03:05.919Z,3.28
2023-01-19T16:05:13.743Z,3.32
2023-01-19T16:07:19.682Z,3.37
2023-01-19T16:09:23.099Z,3.34
2023-01-19T16:11:37.610Z,3.22
2023-01-19T16:13:41.670Z,3.17
2023-01-19T16:15:47.095Z,3.13
2023-01-19T16:17:52.764Z,3.12
2023-01-19T16:19:55.721Z,3.03
2023-01-19T16:21:58.940Z,3.02
2023-01-19T16:24:14.115Z,2.97
2023-01-19T16:26:28.935Z,2.87
2023-01-19T16:28:33.613Z,2.95
2023-01-19T16:30:37.607Z,2.95
2023-01-19T16:32:42.665Z,2.84
2023-01-19T16:34:46.122Z,2.85
2023-01-19T16:36:58.018Z,2.88
2023-01-19T16:39:02.614Z,2.85
2023-01-19T16:41:12.149Z,2.83
2023-01-19T16:43:19.773Z,2.78
2023-01-19T16:45:23.021Z,2.70
2023-01-19T16:47:26.973Z,2.74
2023-01-19T16:49:35.894Z,2.72
2023-01-19T16:51:58.923Z,2.67
2023-01-19T16:54:02.164Z,2.63
2023-01-19T16:56:08.977Z,2.61
2023-01-19T16:58:13.859Z,2.44
2023-01-19T17:00:20.165Z,2.49
2023-01-19T17:02:26.653Z,2.58
2023-01-19T17:04:32.887Z,2.58
2023-01-19T17:06:38.532Z,2.55
2023-01-19T17:08:45.914Z,2.58
2023-01-19T17:10:50.371Z,2.61
2023-01-19T17:12:55.682Z,2.58
2023-01-19T17:15:01.942Z,2.54
2023-01-19T17:17:05.220Z,2.59
2023-01-19T17:19:11.195Z,2.56
2023-01-19T17:21:19.109Z,2.51
2023-01-19T17:23:22.733Z,2.47
2023-01-19T17:25:26.081Z,2.54
2023-01-19T17:27:32.533Z,2.46
2023-01-19T17:29:39.469Z,2.34
2023-01-19T17:31:43.403Z,2.41
2023-01-19T17:33:52.316Z,2.44
2023-01-19T17:35:55.332Z,2.46
2023-01-19T17:38:01.352Z,2.55
2023-01-19T17:40:04.925Z,2.56
2023-01-19T17:42:10.767Z,2.55
2023-01-19T17:44:13.960Z,2.47
2023-01-19T17:46:19.335Z,2.52
2023-01-19T17:48:23.566Z,2.39
2023-01-19T17:50:27.118Z,2.46
2023-01-19T17:52:31.446Z,2.46
2023-01-19T17:54:35.206Z,2.30
2023-01-19T17:56:38.810Z,2.38
2023-01-19T18:02:24.294Z,2.28
2023-01-19T18:04:27.713Z,2.34
2023-01-19T18:06:31.432Z,2.35
2023-01-19T18:08:36.279Z,2.33
2023-01-19T18:10:42.520Z,2.28
2023-01-19T18:12:47.535Z,2.32
2023-01-19T18:14:53.650Z,2.27
2023-01-19T18:16:56.658Z,2.32
2023-01-19T18:19:01.448Z,2.24
2023-01-19T18:21:07.391Z,2.25
2023-01-19T18:23:17.538Z,2.19
2023-01-19T18:25:21.559Z,2.16
2023-01-19T18:27:26.127Z,2.18
2023-01-19T18:29:31.476Z,2.06
2023-01-19T18:31:34.933Z,2.02
2023-01-19T18:33:38.838Z,2.12
2023-01-19T18:35:43.901Z,2.18
2023-01-19T18:37:47.149Z,2.17
2023-01-19T18:39:51.743Z,2.20
2023-01-19T18:41:57.284Z,2.22
2023-01-19T18:44:01.171Z,2.20
2023-01-19T18:46:09.269Z,2.20
2023-01-19T18:48:14.472Z,2.14
2023-01-19T18:50:18.905Z,2.06
2023-01-19T18:52:24.034Z,2.18
2023-01-19T18:54:27.451Z,2.16
2023-01-19T18:56:31.374Z,2.10
2023-01-19T18:58:37.449Z,2.06
2023-01-19T19:00:40.559Z,2.13
2023-01-19T19:02:43.857Z,2.17
2023-01-19T19:04:48.359Z,2.01
2023-01-19T19:06:54.646Z,2.02
2023-01-19T19:09:03.316Z,2.10
2023-01-19T19:11:12.095Z,2.07
2023-01-19T19:13:21.059Z,1.96
2023-01-19T19:15:27.665Z,1.89
2023-01-19T19:17:30.734Z,1.85
2023-01-19T19:19:33.718Z,1.83
2023-01-19T19:21:36.878Z,1.92
2023-01-19T19:23:41.057Z,1.93
2023-01-19T19:25:45.947Z,2.06
2023-01-19T19:27:51.757Z,2.02
2023-01-19T19:29:54.962Z,1.94
2023-01-19T19:31:57.840Z,1.85
2023-01-19T19:34:01.282Z,1.89
2023-01-19T19:36:05.046Z,1.95
2023-01-19T19:38:08.674Z,1.92
2023-01-19T19:40:12.976Z,2.01
2023-01-19T19:42:18.873Z,1.95
2023-01-19T19:44:21.856Z,2.00
2023-01-19T19:46:25.693Z,2.05
2023-01-19T19:48:29.376Z,2.04
2023-01-19T19:50:35.868Z,2.06
2023-01-19T19:52:40.279Z,2.05
2023-01-19T19:54:44.338Z,2.04
2023-01-19T19:56:50.761Z,2.09
2023-01-19T19:58:56.549Z,2.09
2023-01-19T20:01:03.096Z,1.96
2023-01-19T20:03:06.103Z,1.91
2023-01-19T20:05:09.633Z,2.02
2023-01-19T20:07:12.724Z,1.96
2023-01-19T20:09:17.206Z,2.02
2023-01-19T20:11:23.393Z,2.05
2023-01-19T20:13:28.542Z,2.03
2023-01-19T20:15:33.082Z,1.97
2023-01-19T20:17:37.825Z,2.10
2023-01-19T20:19:40.715Z,2.14
2023-01-19T20:21:43.944Z,2.14
2023-01-19T20:23:47.719Z,2.16
2023-01-19T20:25:53.427Z,2.18
2023-01-19T20:28:00.324Z,2.22
2023-01-19T20:30:03.929Z,2.20
2023-01-19T20:32:09.141Z,2.26
2023-01-19T20:34:14.016Z,2.16
2023-01-19T20:36:17.283Z,2.24
2023-01-19T20:38:20.298Z,2.23
2023-01-19T20:40:23.289Z,2.30
2023-01-19T20:42:26.483Z,2.30
2023-01-19T20:44:30.175Z,2.28
2023-01-19T20:46:33.124Z,2.32
2023-01-19T20:48:39.173Z,2.34
2023-01-19T20:50:42.172Z,2.36
2023-01-19T20:52:45.076Z,2.31
2023-01-19T20:54:48.021Z,2.31
2023-01-19T20:56:51.124Z,2.38
2023-01-19T20:58:54.296Z,2.38
2023-01-19T21:00:59.868Z,2.44
2023-01-19T21:03:03.508Z,2.41
2023-01-19T21:05:09.794Z,2.40
2023-01-19T21:11:34.283Z,2.42
2023-01-19T21:13:38.212Z,2.47
2023-01-19T21:15:41.244Z,2.49
2023-01-19T21:17:45.275Z,2.55
2023-01-19T21:19:48.367Z,2.60
2023-01-19T21:21:52.784Z,2.51
2023-01-19T21:23:58.072Z,2.58
2023-01-19T21:26:01.836Z,2.62
2023-01-19T21:28:07.105Z,2.60
2023-01-19T21:30:11.257Z,2.53
2023-01-19T21:32:14.270Z,2.63
2023-01-19T21:34:17.284Z,2.65
2023-01-19T21:36:20.862Z,2.64
2023-01-19T21:38:29.341Z,2.45
2023-01-19T21:40:32.337Z,2.54
2023-01-19T21:42:35.247Z,2.49
2023-01-19T21:44:38.414Z,2.43
2023-01-19T21:46:43.482Z,2.50
2023-01-19T21:48:47.582Z,2.46
2023-01-19T21:50:58.539Z,2.38
2023-01-19T21:53:01.553Z,2.46
2023-01-19T21:55:07.244Z,2.51
2023-01-19T21:57:10.339Z,2.55
2023-01-19T21:59:14.767Z,2.46
2023-01-19T22:01:18.086Z,2.45
2023-01-19T22:03:26.791Z,2.45
2023-01-19T22:05:29.682Z,2.53
2023-01-19T22:07:32.917Z,2.57
2023-01-19T22:09:36.031Z,2.54
2023-01-19T22:11:40.699Z,2.62
2023-01-19T22:13:44.333Z,2.53
2023-01-19T22:15:47.252Z,2.53
2023-01-19T22:17:50.132Z,2.59
2023-01-19T22:19:56.023Z,2.60
2023-01-19T22:21:59.046Z,2.56
2023-01-19T22:24:02.952Z,2.62
2023-01-19T22:26:06.675Z,2.54
2023-01-19T22:28:12.273Z,2.61
2023-01-19T22:30:17.855Z,2.64
2023-01-19T22:32:21.056Z,2.70
2023-01-19T22:34:23.897Z,2.75
2023-01-19T22:36:31.793Z,2.76
2023-01-19T22:38:35.135Z,2.72
2023-01-19T22:40:38.141Z,2.71
2023-01-19T22:42:41.050Z,2.74
2023-01-19T22:44:45.835Z,2.80
2023-01-19T22:46:54.870Z,2.73
2023-01-19T22:48:58.752Z,2.73
2023-01-19T22:51:02.323Z,2.74
2023-01-19T22:53:08.271Z,2.67
2023-01-19T22:55:13.264Z,2.75
2023-01-19T22:57:16.904Z,2.78
2023-01-19T22:59:21.473Z,2.73
2023-01-19T23:01:28.539Z,2.76
2023-01-19T23:03:32.065Z,2.68
2023-01-19T23:05:37.035Z,2.66
2023-01-19T23:07:42.966Z,2.61
2023-01-19T23:09:46.025Z,2.71
2023-01-19T23:11:52.263Z,2.65
2023-01-19T23:13:59.975Z,2.66
2023-01-19T23:16:06.719Z,2.64
2023-01-19T23:18:14.523Z,2.68
2023-01-19T23:20:19.443Z,2.72
2023-01-19T23:22:23.416Z,2.71
2023-01-19T23:24:27.547Z,2.74
2023-01-19T23:26:38.222Z,2.73
2023-01-19T23:28:43.894Z,2.80
2023-01-19T23:30:49.455Z,2.75
2023-01-19T23:32:52.665Z,2.71
2023-01-19T23:35:03.075Z,2.71
2023-01-19T23:37:07.826Z,2.67
2023-01-19T23:39:15.023Z,2.65
2023-01-19T23:41:18.738Z,2.58
2023-01-19T23:43:22.912Z,2.62
2023-01-19T23:45:27.056Z,2.64
2023-01-19T23:47:31.355Z,2.67
2023-01-19T23:49:34.675Z,2.62
2023-01-19T23:51:42.040Z,2.49
2023-01-19T23:53:45.278Z,2.61
2023-01-19T23:55:49.781Z,2.64
2023-01-19T23:57:52.900Z,2.65
2023-01-19T23:59:56.985Z,2.60
